sensor_id;sensor_type;location;lat;lon;timestamp;temperature;humidity
46331;DHT22;32049;52.346;4.870;2022-10-31T00:02:47;13.50;99.90
46331;DHT22;32049;52.346;4.870;2022-10-31T00:05:46;13.50;99.90
46331;DHT22;32049;52.346;4.870;2022-10-31T00:08:44;13.50;99.90
46331;DHT22;32049;52.346;4.870;2022-10-31T00:11:39;13.50;99.90
46331;DHT22;32049;52.346;4.870;2022-10-31T00:17:58;13.40;99.90
46331;DHT22;32049;52.346;4.870;2022-10-31T00:21:15;13.40;99.90
46331;DHT22;32049;52.346;4.870;2022-10-31T00:24:24;13.40;99.90
46331;DHT22;32049;52.346;4.870;2022-10-31T00:27:17;13.40;99.90
46331;DHT22;32049;52.346;4.870;2022-10-31T00:30:26;13.40;99.90
46331;DHT22;32049;52.346;4.870;2022-10-31T00:33:16;13.40;99.90
46331;DHT22;32049;52.346;4.870;2022-10-31T00:36:13;13.50;99.90
46331;DHT22;32049;52.346;4.870;2022-10-31T00:39:07;13.40;99.90
46331;DHT22;32049;52.346;4.870;2022-10-31T00:42:01;13.50;99.90
46331;DHT22;32049;52.346;4.870;2022-10-31T00:44:51;13.40;99.90
46331;DHT22;32049;52.346;4.870;2022-10-31T00:47:38;13.50;99.90
46331;DHT22;32049;52.346;4.870;2022-10-31T00:50:34;13.40;99.90
46331;DHT22;32049;52.346;4.870;2022-10-31T00:53:34;13.20;99.90
46331;DHT22;32049;52.346;4.870;2022-10-31T00:56:24;13.30;99.90
46331;DHT22;32049;52.346;4.870;2022-10-31T00:59:19;13.30;99.90
46331;DHT22;32049;52.346;4.870;2022-10-31T01:02:16;13.40;99.90
46331;DHT22;32049;52.346;4.870;2022-10-31T01:13:53;13.20;99.90
46331;DHT22;32049;52.346;4.870;2022-10-31T01:16:53;13.20;99.90
46331;DHT22;32049;52.346;4.870;2022-10-31T01:19:44;13.30;99.90
46331;DHT22;32049;52.346;4.870;2022-10-31T01:22:32;13.20;99.90
46331;DHT22;32049;52.346;4.870;2022-10-31T01:25:31;13.20;99.90
46331;DHT22;32049;52.346;4.870;2022-10-31T01:28:24;13.20;99.90
46331;DHT22;32049;52.346;4.870;2022-10-31T01:31:12;13.20;99.90
46331;DHT22;32049;52.346;4.870;2022-10-31T01:33:59;13.20;99.90
46331;DHT22;32049;52.346;4.870;2022-10-31T01:36:50;13.10;99.90
46331;DHT22;32049;52.346;4.870;2022-10-31T01:39:43;13.20;99.90
46331;DHT22;32049;52.346;4.870;2022-10-31T01:42:36;13.10;99.90
46331;DHT22;32049;52.346;4.870;2022-10-31T01:45:26;13.10;99.90
46331;DHT22;32049;52.346;4.870;2022-10-31T01:48:15;13.10;99.90
46331;DHT22;32049;52.346;4.870;2022-10-31T01:51:04;13.00;99.90
46331;DHT22;32049;52.346;4.870;2022-10-31T01:53:58;12.90;99.90
46331;DHT22;32049;52.346;4.870;2022-10-31T01:56:49;12.90;99.90
46331;DHT22;32049;52.346;4.870;2022-10-31T01:59:47;12.80;99.90
46331;DHT22;32049;52.346;4.870;2022-10-31T02:02:39;12.70;99.90
46331;DHT22;32049;52.346;4.870;2022-10-31T02:05:28;12.70;99.90
46331;DHT22;32049;52.346;4.870;2022-10-31T02:08:32;12.60;99.90
46331;DHT22;32049;52.346;4.870;2022-10-31T02:11:25;12.60;99.90
46331;DHT22;32049;52.346;4.870;2022-10-31T02:14:25;12.50;99.90
46331;DHT22;32049;52.346;4.870;2022-10-31T02:17:23;12.50;99.90
46331;DHT22;32049;52.346;4.870;2022-10-31T02:20:16;12.50;99.90
46331;DHT22;32049;52.346;4.870;2022-10-31T02:35:09;12.50;99.90
46331;DHT22;32049;52.346;4.870;2022-10-31T02:38:19;12.30;99.90
46331;DHT22;32049;52.346;4.870;2022-10-31T02:41:19;12.30;99.90
46331;DHT22;32049;52.346;4.870;2022-10-31T02:44:29;12.40;99.90
46331;DHT22;32049;52.346;4.870;2022-10-31T02:47:21;12.40;99.90
46331;DHT22;32049;52.346;4.870;2022-10-31T02:53:06;12.30;99.90
46331;DHT22;32049;52.346;4.870;2022-10-31T02:55:57;12.40;99.90
46331;DHT22;32049;52.346;4.870;2022-10-31T02:58:51;12.30;99.90
46331;DHT22;32049;52.346;4.870;2022-10-31T03:04:46;12.30;99.90
46331;DHT22;32049;52.346;4.870;2022-10-31T03:08:01;12.20;99.90
46331;DHT22;32049;52.346;4.870;2022-10-31T03:10:54;12.30;99.90
46331;DHT22;32049;52.346;4.870;2022-10-31T03:16:57;12.20;99.90
46331;DHT22;32049;52.346;4.870;2022-10-31T03:20:09;12.20;99.90
46331;DHT22;32049;52.346;4.870;2022-10-31T03:22:58;12.20;99.90
46331;DHT22;32049;52.346;4.870;2022-10-31T03:26:04;12.20;99.90
46331;DHT22;32049;52.346;4.870;2022-10-31T03:29:06;12.20;99.90
46331;DHT22;32049;52.346;4.870;2022-10-31T03:32:13;12.30;99.90
46331;DHT22;32049;52.346;4.870;2022-10-31T03:35:18;12.10;99.90
46331;DHT22;32049;52.346;4.870;2022-10-31T03:38:13;12.20;99.90
46331;DHT22;32049;52.346;4.870;2022-10-31T03:41:10;12.10;99.90
46331;DHT22;32049;52.346;4.870;2022-10-31T03:44:00;12.10;99.90
46331;DHT22;32049;52.346;4.870;2022-10-31T03:46:55;12.00;99.90
46331;DHT22;32049;52.346;4.870;2022-10-31T03:49:55;12.10;99.90
46331;DHT22;32049;52.346;4.870;2022-10-31T03:52:53;12.10;99.90
46331;DHT22;32049;52.346;4.870;2022-10-31T03:59:02;12.10;99.90
46331;DHT22;32049;52.346;4.870;2022-10-31T04:02:10;12.10;99.90
46331;DHT22;32049;52.346;4.870;2022-10-31T04:05:04;12.10;99.90
46331;DHT22;32049;52.346;4.870;2022-10-31T04:07:57;12.10;99.90
46331;DHT22;32049;52.346;4.870;2022-10-31T04:10:49;12.10;99.90
46331;DHT22;32049;52.346;4.870;2022-10-31T04:13:45;12.10;99.90
46331;DHT22;32049;52.346;4.870;2022-10-31T04:16:39;12.10;99.90
46331;DHT22;32049;52.346;4.870;2022-10-31T04:19:33;12.10;99.90
46331;DHT22;32049;52.346;4.870;2022-10-31T04:22:29;12.10;99.90
46331;DHT22;32049;52.346;4.870;2022-10-31T04:25:27;12.00;99.90
46331;DHT22;32049;52.346;4.870;2022-10-31T04:28:29;12.00;99.90
46331;DHT22;32049;52.346;4.870;2022-10-31T04:31:18;12.20;99.90
46331;DHT22;32049;52.346;4.870;2022-10-31T04:34:21;12.10;99.90
46331;DHT22;32049;52.346;4.870;2022-10-31T04:37:10;12.20;99.90
46331;DHT22;32049;52.346;4.870;2022-10-31T04:40:21;12.10;99.90
46331;DHT22;32049;52.346;4.870;2022-10-31T04:46:33;12.20;99.90
46331;DHT22;32049;52.346;4.870;2022-10-31T04:49:24;12.20;99.90
46331;DHT22;32049;52.346;4.870;2022-10-31T04:52:30;12.10;99.90
46331;DHT22;32049;52.346;4.870;2022-10-31T04:55:28;12.20;99.90
46331;DHT22;32049;52.346;4.870;2022-10-31T04:58:39;12.20;99.90
46331;DHT22;32049;52.346;4.870;2022-10-31T05:02:06;12.20;99.90
46331;DHT22;32049;52.346;4.870;2022-10-31T05:05:14;12.20;99.90
46331;DHT22;32049;52.346;4.870;2022-10-31T05:08:08;12.30;99.90
46331;DHT22;32049;52.346;4.870;2022-10-31T05:11:09;12.30;99.90
46331;DHT22;32049;52.346;4.870;2022-10-31T06:08:39;12.00;99.90
46331;DHT22;32049;52.346;4.870;2022-10-31T06:17:56;12.10;99.90
46331;DHT22;32049;52.346;4.870;2022-10-31T06:20:44;12.10;99.90
46331;DHT22;32049;52.346;4.870;2022-10-31T06:29:39;12.00;99.90
46331;DHT22;32049;52.346;4.870;2022-10-31T06:36:11;12.10;99.90
46331;DHT22;32049;52.346;4.870;2022-10-31T06:43:40;12.00;99.90
46331;DHT22;32049;52.346;4.870;2022-10-31T06:47:55;12.00;99.90
46331;DHT22;32049;52.346;4.870;2022-10-31T06:51:08;12.10;99.90
46331;DHT22;32049;52.346;4.870;2022-10-31T07:04:15;12.00;99.90
46331;DHT22;32049;52.346;4.870;2022-10-31T07:07:09;12.40;99.90
46331;DHT22;32049;52.346;4.870;2022-10-31T07:09:56;12.30;99.90
46331;DHT22;32049;52.346;4.870;2022-10-31T07:16:36;12.30;99.90
46331;DHT22;32049;52.346;4.870;2022-10-31T07:19:39;12.40;99.90
46331;DHT22;32049;52.346;4.870;2022-10-31T07:25:33;12.40;99.90
46331;DHT22;32049;52.346;4.870;2022-10-31T07:31:52;12.70;99.90
46331;DHT22;32049;52.346;4.870;2022-10-31T07:41:13;13.70;99.90
46331;DHT22;32049;52.346;4.870;2022-10-31T07:50:15;12.80;99.90
46331;DHT22;32049;52.346;4.870;2022-10-31T07:53:07;13.00;99.90
46331;DHT22;32049;52.346;4.870;2022-10-31T08:41:49;14.20;99.90
46331;DHT22;32049;52.346;4.870;2022-10-31T08:48:27;14.40;99.90
46331;DHT22;32049;52.346;4.870;2022-10-31T08:51:15;14.70;99.90
46331;DHT22;32049;52.346;4.870;2022-10-31T08:54:22;14.70;99.90
46331;DHT22;32049;52.346;4.870;2022-10-31T08:57:16;14.60;99.90
46331;DHT22;32049;52.346;4.870;2022-10-31T09:01:09;14.60;99.90
46331;DHT22;32049;52.346;4.870;2022-10-31T09:10:00;14.70;99.90
46331;DHT22;32049;52.346;4.870;2022-10-31T09:22:21;14.80;99.90
46331;DHT22;32049;52.346;4.870;2022-10-31T09:25:21;15.10;99.90
46331;DHT22;32049;52.346;4.870;2022-10-31T09:52:53;15.00;99.90
46331;DHT22;32049;52.346;4.870;2022-10-31T09:55:53;15.30;99.90
46331;DHT22;32049;52.346;4.870;2022-10-31T09:59:17;15.20;99.90
46331;DHT22;32049;52.346;4.870;2022-10-31T10:05:23;15.30;99.90
46331;DHT22;32049;52.346;4.870;2022-10-31T10:08:24;15.30;99.90
46331;DHT22;32049;52.346;4.870;2022-10-31T10:19:04;15.00;99.90
46331;DHT22;32049;52.346;4.870;2022-10-31T10:26:22;15.50;99.90
46331;DHT22;32049;52.346;4.870;2022-10-31T10:37:16;15.60;99.90
46331;DHT22;32049;52.346;4.870;2022-10-31T10:40:38;15.70;99.90
46331;DHT22;32049;52.346;4.870;2022-10-31T10:43:33;16.10;99.90
46331;DHT22;32049;52.346;4.870;2022-10-31T10:56:40;16.40;99.90
46331;DHT22;32049;52.346;4.870;2022-10-31T11:03:50;16.60;99.90
46331;DHT22;32049;52.346;4.870;2022-10-31T11:07:03;16.40;99.90
46331;DHT22;32049;52.346;4.870;2022-10-31T11:10:21;16.60;99.90
46331;DHT22;32049;52.346;4.870;2022-10-31T11:13:28;16.60;99.90
46331;DHT22;32049;52.346;4.870;2022-10-31T11:16:42;16.70;99.90
46331;DHT22;32049;52.346;4.870;2022-10-31T11:19:33;16.70;99.90
46331;DHT22;32049;52.346;4.870;2022-10-31T11:22:29;16.70;99.90
46331;DHT22;32049;52.346;4.870;2022-10-31T11:25:22;16.40;99.90
46331;DHT22;32049;52.346;4.870;2022-10-31T11:28:10;16.50;99.90
46331;DHT22;32049;52.346;4.870;2022-10-31T11:31:01;16.40;99.90
46331;DHT22;32049;52.346;4.870;2022-10-31T11:34:05;16.20;99.90
46331;DHT22;32049;52.346;4.870;2022-10-31T11:36:54;16.40;99.90
46331;DHT22;32049;52.346;4.870;2022-10-31T11:39:57;16.50;99.90
46331;DHT22;32049;52.346;4.870;2022-10-31T11:43:05;16.50;99.90
46331;DHT22;32049;52.346;4.870;2022-10-31T11:46:11;16.50;99.90
46331;DHT22;32049;52.346;4.870;2022-10-31T11:49:16;16.60;99.90
46331;DHT22;32049;52.346;4.870;2022-10-31T11:52:12;17.00;99.90
46331;DHT22;32049;52.346;4.870;2022-10-31T11:55:15;17.90;99.90
46331;DHT22;32049;52.346;4.870;2022-10-31T12:01:27;18.90;99.90
46331;DHT22;32049;52.346;4.870;2022-10-31T12:04:15;18.90;99.90
46331;DHT22;32049;52.346;4.870;2022-10-31T12:07:04;18.60;99.90
46331;DHT22;32049;52.346;4.870;2022-10-31T12:09:57;18.10;99.90
46331;DHT22;32049;52.346;4.870;2022-10-31T12:15:55;17.50;99.90
46331;DHT22;32049;52.346;4.870;2022-10-31T12:18:51;17.40;99.90
46331;DHT22;32049;52.346;4.870;2022-10-31T12:28:03;17.10;99.90
46331;DHT22;32049;52.346;4.870;2022-10-31T12:31:12;17.10;99.90
46331;DHT22;32049;52.346;4.870;2022-10-31T12:52:51;18.80;99.90
46331;DHT22;32049;52.346;4.870;2022-10-31T12:55:52;18.80;99.90
46331;DHT22;32049;52.346;4.870;2022-10-31T12:58:49;18.40;99.90
46331;DHT22;32049;52.346;4.870;2022-10-31T13:06:44;19.10;99.90
46331;DHT22;32049;52.346;4.870;2022-10-31T13:21:21;17.80;99.90
46331;DHT22;32049;52.346;4.870;2022-10-31T14:53:05;16.30;99.90
46331;DHT22;32049;52.346;4.870;2022-10-31T14:55:55;16.20;99.90
46331;DHT22;32049;52.346;4.870;2022-10-31T15:04:50;16.20;99.90
46331;DHT22;32049;52.346;4.870;2022-10-31T15:16:46;16.10;99.90
46331;DHT22;32049;52.346;4.870;2022-10-31T16:05:19;15.80;99.90
46331;DHT22;32049;52.346;4.870;2022-10-31T16:17:04;15.70;99.90
46331;DHT22;32049;52.346;4.870;2022-10-31T17:55:40;15.50;99.90
46331;DHT22;32049;52.346;4.870;2022-10-31T17:58:28;15.40;99.90
46331;DHT22;32049;52.346;4.870;2022-10-31T18:01:17;15.40;99.90
46331;DHT22;32049;52.346;4.870;2022-10-31T18:04:04;15.40;99.90
46331;DHT22;32049;52.346;4.870;2022-10-31T18:06:51;15.40;99.90
46331;DHT22;32049;52.346;4.870;2022-10-31T18:15:41;15.20;99.90
46331;DHT22;32049;52.346;4.870;2022-10-31T18:18:29;15.20;99.90
46331;DHT22;32049;52.346;4.870;2022-10-31T19:01:03;15.20;99.90
46331;DHT22;32049;52.346;4.870;2022-10-31T19:04:08;15.20;99.90
46331;DHT22;32049;52.346;4.870;2022-10-31T19:07:08;15.20;99.90
46331;DHT22;32049;52.346;4.870;2022-10-31T19:17:16;15.10;99.90
46331;DHT22;32049;52.346;4.870;2022-10-31T19:20:03;15.10;99.90
46331;DHT22;32049;52.346;4.870;2022-10-31T19:22:53;15.20;99.90
46331;DHT22;32049;52.346;4.870;2022-10-31T19:25:58;15.20;99.90
46331;DHT22;32049;52.346;4.870;2022-10-31T19:28:50;15.10;99.90
46331;DHT22;32049;52.346;4.870;2022-10-31T19:31:39;15.20;99.90
46331;DHT22;32049;52.346;4.870;2022-10-31T19:34:30;15.20;99.90
46331;DHT22;32049;52.346;4.870;2022-10-31T19:37:37;15.20;99.90
46331;DHT22;32049;52.346;4.870;2022-10-31T19:40:44;15.10;99.90
46331;DHT22;32049;52.346;4.870;2022-10-31T19:43:48;15.10;99.90
46331;DHT22;32049;52.346;4.870;2022-10-31T19:46:44;15.00;99.90
46331;DHT22;32049;52.346;4.870;2022-10-31T19:49:50;15.00;99.90
46331;DHT22;32049;52.346;4.870;2022-10-31T19:52:41;15.10;99.90
46331;DHT22;32049;52.346;4.870;2022-10-31T19:55:40;15.10;99.90
46331;DHT22;32049;52.346;4.870;2022-10-31T19:59:03;15.00;99.90
46331;DHT22;32049;52.346;4.870;2022-10-31T20:02:21;15.10;99.90
46331;DHT22;32049;52.346;4.870;2022-10-31T20:05:27;15.10;99.90
46331;DHT22;32049;52.346;4.870;2022-10-31T20:08:17;15.10;99.90
46331;DHT22;32049;52.346;4.870;2022-10-31T20:11:21;15.10;99.90
46331;DHT22;32049;52.346;4.870;2022-10-31T20:14:11;15.10;99.90
46331;DHT22;32049;52.346;4.870;2022-10-31T20:17:03;15.10;99.90
46331;DHT22;32049;52.346;4.870;2022-10-31T20:19:51;15.10;99.90
46331;DHT22;32049;52.346;4.870;2022-10-31T20:22:56;15.20;99.90
46331;DHT22;32049;52.346;4.870;2022-10-31T20:25:55;15.20;99.90
46331;DHT22;32049;52.346;4.870;2022-10-31T20:28:43;15.20;99.90
46331;DHT22;32049;52.346;4.870;2022-10-31T20:58:58;15.30;99.90
46331;DHT22;32049;52.346;4.870;2022-10-31T21:11:11;15.40;99.90
46331;DHT22;32049;52.346;4.870;2022-10-31T21:14:22;15.30;99.90
46331;DHT22;32049;52.346;4.870;2022-10-31T21:17:42;15.40;99.90
46331;DHT22;32049;52.346;4.870;2022-10-31T21:31:12;15.30;99.90
46331;DHT22;32049;52.346;4.870;2022-10-31T21:34:00;15.30;99.90
46331;DHT22;32049;52.346;4.870;2022-10-31T21:36:48;15.30;99.90
46331;DHT22;32049;52.346;4.870;2022-10-31T21:42:38;15.30;99.90
46331;DHT22;32049;52.346;4.870;2022-10-31T21:45:26;15.30;99.90
46331;DHT22;32049;52.346;4.870;2022-10-31T21:48:13;15.30;99.90
46331;DHT22;32049;52.346;4.870;2022-10-31T21:51:01;15.30;99.90
46331;DHT22;32049;52.346;4.870;2022-10-31T21:53:48;15.20;99.90
46331;DHT22;32049;52.346;4.870;2022-10-31T21:56:55;15.30;99.90
46331;DHT22;32049;52.346;4.870;2022-10-31T22:18:02;15.30;99.90
46331;DHT22;32049;52.346;4.870;2022-10-31T22:21:44;15.20;99.90
46331;DHT22;32049;52.346;4.870;2022-10-31T22:41:24;15.30;99.90
46331;DHT22;32049;52.346;4.870;2022-10-31T22:44:15;15.30;99.90
46331;DHT22;32049;52.346;4.870;2022-10-31T22:47:05;15.40;99.90
46331;DHT22;32049;52.346;4.870;2022-10-31T22:49:58;15.40;99.90
46331;DHT22;32049;52.346;4.870;2022-10-31T22:52:50;15.40;99.90
46331;DHT22;32049;52.346;4.870;2022-10-31T22:55:40;15.40;99.90
46331;DHT22;32049;52.346;4.870;2022-10-31T22:58:29;15.40;99.90
46331;DHT22;32049;52.346;4.870;2022-10-31T23:01:32;15.50;99.90
46331;DHT22;32049;52.346;4.870;2022-10-31T23:04:36;15.40;99.90
46331;DHT22;32049;52.346;4.870;2022-10-31T23:07:29;15.40;99.90
46331;DHT22;32049;52.346;4.870;2022-10-31T23:10:37;15.40;99.90
46331;DHT22;32049;52.346;4.870;2022-10-31T23:13:34;15.40;99.90
